Terminal Aerodrome Forecast
Issued by NWS

Current Version | Previous Version | Text Only | Print | Product List | Glossary Off
Versions: 1 2 3 4 5 6 7 8 9 10 11 12

000
FTUS42 KMHX 132332
TAFPGV
TAF
KPGV 132332Z 1400/1424 20006KT P6SM SKC
     FM140300 21010KT P6SM SCT150 WS020/22040KT
     FM141400 26009KT P6SM SKC
     FM142000 29006KT P6SM FEW150
      AMD LTD TO CLD VIS AND WIND=

USA.gov is the U.S. government's official web portal to all federal, state and local government web resources and services.